createdAt,value
2023-04-12T00:00:20.355Z,3.22
2023-04-12T00:01:17.312Z,3.23
2023-04-12T00:02:17.412Z,3.23
2023-04-12T00:03:17.369Z,3.23
2023-04-12T00:04:17.401Z,3.23
2023-04-12T00:05:17.358Z,3.21
2023-04-12T00:06:17.270Z,3.26
2023-04-12T00:07:17.232Z,3.26
2023-04-12T00:08:17.219Z,3.29
2023-04-12T00:09:17.216Z,3.29
2023-04-12T00:10:17.199Z,3.34
2023-04-12T00:11:17.198Z,3.32
2023-04-12T00:12:17.162Z,3.36
2023-04-12T00:13:17.157Z,3.37
2023-04-12T00:14:17.134Z,3.37
2023-04-12T00:15:17.132Z,3.37
2023-04-12T00:16:17.250Z,3.40
2023-04-12T00:17:17.109Z,3.37
2023-04-12T00:18:17.103Z,3.40
2023-04-12T00:19:20.065Z,3.40
2023-04-12T00:20:20.058Z,3.40
2023-04-12T00:21:17.128Z,3.40
2023-04-12T00:22:17.069Z,3.41
2023-04-12T00:23:17.017Z,3.42
2023-04-12T00:24:17.039Z,3.44
2023-04-12T00:25:16.991Z,3.45
2023-04-12T00:26:17.028Z,3.47
2023-04-12T00:27:16.962Z,3.50
2023-04-12T00:28:16.953Z,3.53
2023-04-12T00:29:16.947Z,3.55
2023-04-12T00:30:16.971Z,3.56
2023-04-12T00:31:16.965Z,3.58
2023-04-12T00:32:16.902Z,3.62
2023-04-12T00:33:16.882Z,3.63
2023-04-12T00:34:16.927Z,3.65
2023-04-12T00:35:16.853Z,3.66
2023-04-12T00:36:16.918Z,3.66
2023-04-12T00:37:16.828Z,3.68
2023-04-12T00:38:16.838Z,3.69
2023-04-12T00:39:19.813Z,3.68
2023-04-12T00:40:19.793Z,3.69
2023-04-12T00:41:16.796Z,3.70
2023-04-12T00:42:16.769Z,3.74
2023-04-12T00:43:16.783Z,3.76
2023-04-12T00:44:16.740Z,3.74
2023-04-12T00:45:16.737Z,3.76
2023-04-12T00:46:16.738Z,3.77
2023-04-12T00:47:16.778Z,3.77
2023-04-12T00:48:16.750Z,3.78
2023-04-12T00:49:16.699Z,3.77
2023-04-12T00:50:16.663Z,3.76
2023-04-12T00:51:16.639Z,3.78
2023-04-12T00:52:16.646Z,3.81
2023-04-12T00:53:16.633Z,3.83
2023-04-12T00:54:16.608Z,3.84
2023-04-12T00:55:16.583Z,3.86
2023-04-12T00:56:16.580Z,3.84
2023-04-12T00:57:16.581Z,3.86
2023-04-12T00:58:16.591Z,3.88
2023-04-12T00:59:19.549Z,3.88
2023-04-12T01:00:19.550Z,3.91
2023-04-12T01:01:16.589Z,3.92
2023-04-12T01:02:16.585Z,3.94
2023-04-12T01:03:16.783Z,3.94
2023-04-12T01:04:16.505Z,3.96
2023-04-12T01:05:16.475Z,3.94
2023-04-12T01:06:16.460Z,3.94
2023-04-12T01:07:16.425Z,3.92
2023-04-12T01:08:16.450Z,3.95
2023-04-12T01:09:16.398Z,3.95
2023-04-12T01:10:16.396Z,3.98
2023-04-12T01:11:16.393Z,3.98
2023-04-12T01:12:16.358Z,3.98
2023-04-12T01:13:16.346Z,3.98
2023-04-12T01:14:16.331Z,3.99
2023-04-12T01:15:16.317Z,3.98
2023-04-12T01:16:16.403Z,3.99
2023-04-12T01:17:16.300Z,4.01
2023-04-12T01:18:16.282Z,4.01
2023-04-12T01:19:19.259Z,4.02
2023-04-12T01:20:19.251Z,4.02
2023-04-12T01:21:16.269Z,4.02
2023-04-12T01:22:16.216Z,4.02
2023-04-12T01:23:16.219Z,4.04
2023-04-12T01:24:16.204Z,4.04
2023-04-12T01:25:16.216Z,4.04
2023-04-12T01:26:16.251Z,4.02
2023-04-12T01:27:16.145Z,4.02
2023-04-12T01:28:16.136Z,4.04
2023-04-12T01:29:16.150Z,4.01
2023-04-12T01:30:16.109Z,4.01
2023-04-12T01:31:16.110Z,4.02
2023-04-12T01:32:16.105Z,4.02
2023-04-12T01:33:16.065Z,4.04
2023-04-12T01:34:16.095Z,4.02
2023-04-12T01:35:16.037Z,4.05
2023-04-12T01:36:16.054Z,4.04
2023-04-12T01:37:16.039Z,4.05
2023-04-12T01:38:16.002Z,4.04
2023-04-12T01:39:18.986Z,4.04
2023-04-12T01:40:18.991Z,4.04
2023-04-12T01:41:15.983Z,4.05
2023-04-12T01:42:15.974Z,4.06
2023-04-12T01:43:15.993Z,4.10
2023-04-12T01:44:15.947Z,4.08
2023-04-12T01:45:15.899Z,4.10
2023-04-12T01:46:15.925Z,4.12
2023-04-12T01:47:15.911Z,4.10
2023-04-12T01:48:15.887Z,4.10
2023-04-12T01:49:15.854Z,4.10
2023-04-12T01:50:15.843Z,4.12
2023-04-12T01:51:15.842Z,4.10
2023-04-12T01:52:15.875Z,4.12
2023-04-12T01:53:15.798Z,4.12
2023-04-12T01:54:15.783Z,4.12
2023-04-12T01:55:15.808Z,4.10
2023-04-12T01:56:15.763Z,4.10
2023-04-12T01:57:15.747Z,4.12
2023-04-12T01:58:15.756Z,4.14
2023-04-12T01:59:18.720Z,4.17
2023-04-12T02:00:18.716Z,4.23
2023-04-12T02:01:15.929Z,4.28
2023-04-12T02:02:15.782Z,4.32
2023-04-12T02:03:15.868Z,4.35
2023-04-12T02:04:15.717Z,4.40
2023-04-12T02:05:15.638Z,4.41
2023-04-12T02:06:15.651Z,4.48
2023-04-12T02:07:15.666Z,4.50
2023-04-12T02:08:15.609Z,4.53
2023-04-12T02:09:15.599Z,4.56
2023-04-12T02:10:15.577Z,4.59
2023-04-12T02:11:15.578Z,4.60
2023-04-12T02:12:15.562Z,4.63
2023-04-12T02:13:15.580Z,4.66
2023-04-12T02:14:15.516Z,4.70
2023-04-12T02:15:15.524Z,4.71
2023-04-12T02:16:15.552Z,4.71
2023-04-12T02:17:15.481Z,4.71
2023-04-12T02:18:15.458Z,4.71
2023-04-12T02:19:18.485Z,4.71
2023-04-12T02:20:18.442Z,4.74
2023-04-12T02:21:15.417Z,4.75
2023-04-12T02:22:15.410Z,4.77
2023-04-12T02:23:15.395Z,4.77
2023-04-12T02:24:15.408Z,4.75
2023-04-12T02:25:15.367Z,4.75
2023-04-12T02:26:15.364Z,4.78
2023-04-12T02:27:15.341Z,4.78
2023-04-12T02:28:15.326Z,4.82
2023-04-12T02:29:15.348Z,4.86
2023-04-12T02:30:15.301Z,4.87
2023-04-12T02:31:15.372Z,4.89
2023-04-12T02:32:15.282Z,4.92
2023-04-12T02:33:15.256Z,4.96
2023-04-12T02:34:15.277Z,4.99
2023-04-12T02:35:15.328Z,4.99
2023-04-12T02:36:15.251Z,5.00
2023-04-12T02:37:15.247Z,5.02
2023-04-12T02:38:15.194Z,5.07
2023-04-12T02:39:18.183Z,5.07
2023-04-12T02:40:18.170Z,5.05
2023-04-12T02:41:15.148Z,5.07
2023-04-12T02:42:15.162Z,5.08
2023-04-12T02:43:15.143Z,5.08
2023-04-12T02:44:15.152Z,5.07
2023-04-12T02:45:15.111Z,5.07
2023-04-12T02:46:15.144Z,5.07
2023-04-12T02:47:15.068Z,5.07
2023-04-12T02:48:15.082Z,5.10
2023-04-12T02:49:15.070Z,5.10
2023-04-12T02:50:15.031Z,5.12
2023-04-12T02:51:15.026Z,5.14
2023-04-12T02:52:15.006Z,5.14
2023-04-12T02:53:14.985Z,5.15
2023-04-12T02:54:15.018Z,5.14
2023-04-12T02:55:14.962Z,5.14
2023-04-12T02:56:14.949Z,5.15
2023-04-12T02:57:14.932Z,5.15
2023-04-12T02:58:14.955Z,5.17
2023-04-12T02:59:17.941Z,5.15
2023-04-12T03:00:18.000Z,5.17
2023-04-12T03:01:14.902Z,5.17
2023-04-12T03:02:14.962Z,5.21
2023-04-12T03:03:14.936Z,5.20
2023-04-12T03:04:15.020Z,5.20
2023-04-12T03:05:14.858Z,5.20
2023-04-12T03:06:14.861Z,5.20
2023-04-12T03:07:14.825Z,5.20
2023-04-12T03:08:14.808Z,5.21
2023-04-12T03:09:14.779Z,5.21
2023-04-12T03:10:14.772Z,5.21
2023-04-12T03:11:14.766Z,5.20
2023-04-12T03:12:14.761Z,5.20
2023-04-12T03:13:14.735Z,5.21
2023-04-12T03:14:14.788Z,5.21
2023-04-12T03:15:14.710Z,5.23
2023-04-12T03:16:14.878Z,5.26
2023-04-12T03:17:14.681Z,5.25
2023-04-12T03:18:14.689Z,5.29
2023-04-12T03:19:17.666Z,5.30
2023-04-12T03:20:17.670Z,5.30
2023-04-12T03:21:14.664Z,5.32
2023-04-12T03:22:14.603Z,5.33
2023-04-12T03:23:14.608Z,5.33
2023-04-12T03:24:14.578Z,5.33
2023-04-12T03:25:14.569Z,5.35
2023-04-12T03:26:14.551Z,5.36
2023-04-12T03:27:14.623Z,5.35
2023-04-12T03:28:14.529Z,5.36
2023-04-12T03:29:14.512Z,5.38
2023-04-12T03:30:14.558Z,5.38
2023-04-12T03:31:14.508Z,5.38
2023-04-12T03:32:14.469Z,5.41
2023-04-12T03:33:14.522Z,5.43
2023-04-12T03:34:14.447Z,5.44
2023-04-12T03:35:14.441Z,5.44
2023-04-12T03:36:14.413Z,5.48
2023-04-12T03:37:14.489Z,5.51
2023-04-12T03:38:14.392Z,5.54
2023-04-12T03:39:17.399Z,5.54
2023-04-12T03:40:17.369Z,5.57
2023-04-12T03:41:14.377Z,5.56
2023-04-12T03:42:29.474Z,5.59
2023-04-12T03:43:15.323Z,5.57
2023-04-12T03:44:14.352Z,5.54
2023-04-12T03:45:14.325Z,5.57
2023-04-12T03:46:14.327Z,5.56
2023-04-12T03:47:14.272Z,5.56
2023-04-12T03:48:14.249Z,5.57
2023-04-12T03:49:14.269Z,5.59
2023-04-12T03:50:14.315Z,5.57
2023-04-12T03:51:14.224Z,5.57
2023-04-12T03:52:14.201Z,5.59
2023-04-12T03:53:14.185Z,5.59
2023-04-12T03:54:14.188Z,5.62
2023-04-12T03:55:14.303Z,5.62
2023-04-12T03:56:14.158Z,5.64
2023-04-12T03:57:14.150Z,5.61
2023-04-12T03:58:14.113Z,5.61
2023-04-12T03:59:17.103Z,5.59
2023-04-12T04:00:17.141Z,5.61
2023-04-12T04:01:14.084Z,5.61
2023-04-12T04:02:14.088Z,5.62
2023-04-12T04:03:14.125Z,5.64
2023-04-12T04:04:14.194Z,5.62
2023-04-12T04:05:14.159Z,5.62
2023-04-12T04:06:14.013Z,5.62
2023-04-12T04:07:13.997Z,5.62
2023-04-12T04:08:13.979Z,5.64
2023-04-12T04:09:13.980Z,5.62
2023-04-12T04:10:14.009Z,5.65
2023-04-12T04:11:13.945Z,5.64
2023-04-12T04:12:13.947Z,5.65
2023-04-12T04:13:13.918Z,5.65
2023-04-12T04:14:13.906Z,5.64
2023-04-12T04:15:13.898Z,5.62
2023-04-12T04:16:13.959Z,5.64
2023-04-12T04:17:13.880Z,5.64
2023-04-12T04:18:13.856Z,5.65
2023-04-12T04:19:16.837Z,5.64
2023-04-12T04:20:17.828Z,5.65
2023-04-12T04:21:13.842Z,5.65
2023-04-12T04:22:13.812Z,5.65
2023-04-12T04:23:13.783Z,5.69
2023-04-12T04:24:13.765Z,5.71
2023-04-12T04:25:13.787Z,5.72
2023-04-12T04:26:13.985Z,5.72
2023-04-12T04:27:13.728Z,5.71
2023-04-12T04:28:13.709Z,5.69
2023-04-12T04:29:13.716Z,5.68
2023-04-12T04:30:13.810Z,5.69
2023-04-12T04:31:13.692Z,5.69
2023-04-12T04:32:13.703Z,5.69
2023-04-12T04:33:13.655Z,5.68
2023-04-12T04:34:13.650Z,5.71
2023-04-12T04:35:13.643Z,5.69
2023-04-12T04:36:13.616Z,5.69
2023-04-12T04:37:13.630Z,5.68
2023-04-12T04:38:13.578Z,5.68
2023-04-12T04:39:16.617Z,5.68
2023-04-12T04:40:16.617Z,5.66
2023-04-12T04:41:13.545Z,5.64
2023-04-12T04:42:13.585Z,5.65
2023-04-12T04:43:13.517Z,5.64
2023-04-12T04:44:13.551Z,5.62
2023-04-12T04:45:13.500Z,5.61
2023-04-12T04:46:13.559Z,5.59
2023-04-12T04:47:13.512Z,5.59
2023-04-12T04:48:13.453Z,5.61
2023-04-12T04:49:13.445Z,5.62
2023-04-12T04:50:13.442Z,5.62
2023-04-12T04:51:13.413Z,5.62
2023-04-12T04:52:13.425Z,5.64
2023-04-12T04:53:13.389Z,5.66
2023-04-12T04:54:13.388Z,5.71
2023-04-12T04:55:13.360Z,5.71
2023-04-12T04:56:13.348Z,5.73
2023-04-12T04:57:13.380Z,5.75
2023-04-12T04:58:13.326Z,5.76
2023-04-12T04:59:16.312Z,5.79
2023-04-12T05:00:16.300Z,5.82
2023-04-12T05:01:13.493Z,5.87
2023-04-12T05:02:13.370Z,5.90
2023-04-12T05:03:13.323Z,5.93
2023-04-12T05:04:13.291Z,6.09
2023-04-12T05:05:13.252Z,6.39
2023-04-12T05:06:13.212Z,6.77
2023-04-12T05:07:13.222Z,7.07
2023-04-12T05:08:13.213Z,7.47
2023-04-12T05:09:13.204Z,7.79
2023-04-12T05:10:13.165Z,8.05
2023-04-12T05:11:13.150Z,8.20
2023-04-12T05:12:13.168Z,8.24
2023-04-12T05:13:13.153Z,8.31
2023-04-12T05:14:13.108Z,8.48
2023-04-12T05:15:13.131Z,8.53
2023-04-12T05:16:13.130Z,8.63
2023-04-12T05:17:13.078Z,8.76
2023-04-12T05:18:13.097Z,9.02
2023-04-12T05:19:16.066Z,9.16
2023-04-12T05:20:16.028Z,9.29
2023-04-12T05:21:13.017Z,9.10
2023-04-12T05:22:13.024Z,9.10
2023-04-12T05:23:13.013Z,9.28
2023-04-12T05:24:12.997Z,9.25
2023-04-12T05:25:12.994Z,9.16
2023-04-12T05:26:12.947Z,9.48
2023-04-12T05:27:12.931Z,9.36
2023-04-12T05:28:12.911Z,9.46
2023-04-12T05:29:13.014Z,9.34
2023-04-12T05:30:12.891Z,9.22
2023-04-12T05:31:12.916Z,8.64
2023-04-12T05:32:12.863Z,8.12
2023-04-12T05:33:12.855Z,7.79
2023-04-12T05:34:12.830Z,7.88
2023-04-12T05:35:12.850Z,8.38
2023-04-12T05:36:12.916Z,8.82
2023-04-12T05:37:12.797Z,8.97
2023-04-12T05:38:12.789Z,8.81
2023-04-12T05:39:15.769Z,8.58
2023-04-12T05:40:15.769Z,8.41
2023-04-12T05:41:12.764Z,8.19
2023-04-12T05:42:12.771Z,8.24
2023-04-12T05:43:12.820Z,8.81
2023-04-12T05:44:12.730Z,9.58
2023-04-12T05:45:12.724Z,9.98
2023-04-12T05:46:12.745Z,10.17
2023-04-12T05:47:12.703Z,10.30
2023-04-12T05:48:12.817Z,9.68
2023-04-12T05:49:12.659Z,9.18
2023-04-12T05:50:12.655Z,8.88
2023-04-12T05:51:12.643Z,8.84
2023-04-12T05:52:12.598Z,8.88
2023-04-12T05:53:12.586Z,8.69
2023-04-12T05:54:12.575Z,8.41
2023-04-12T05:55:12.561Z,8.15
2023-04-12T05:56:12.595Z,8.08
2023-04-12T05:57:12.567Z,8.01
2023-04-12T05:58:12.522Z,7.90
2023-04-12T05:59:15.509Z,7.87
2023-04-12T06:00:15.501Z,7.82
2023-04-12T06:01:12.478Z,7.82
2023-04-12T06:02:12.605Z,7.77
2023-04-12T06:03:12.579Z,7.77
2023-04-12T06:04:12.570Z,7.83
2023-04-12T06:05:12.466Z,7.80
2023-04-12T06:06:12.437Z,7.80
2023-04-12T06:07:12.423Z,7.88
2023-04-12T06:08:12.457Z,7.83
2023-04-12T06:09:12.396Z,7.80
2023-04-12T06:10:12.357Z,7.82
2023-04-12T06:11:12.369Z,7.82
2023-04-12T06:12:12.374Z,7.83
2023-04-12T06:13:12.362Z,7.79
2023-04-12T06:14:12.304Z,7.82
2023-04-12T06:15:12.302Z,7.76
2023-04-12T06:16:12.350Z,7.77
2023-04-12T06:17:12.280Z,7.75
2023-04-12T06:18:12.285Z,7.73
2023-04-12T06:19:15.280Z,7.75
2023-04-12T06:20:15.229Z,7.70
2023-04-12T06:21:12.215Z,7.69
2023-04-12T06:22:12.224Z,7.70
2023-04-12T06:23:12.187Z,7.70
2023-04-12T06:24:12.195Z,7.70
2023-04-12T06:25:12.201Z,7.69
2023-04-12T06:26:12.145Z,7.69
2023-04-12T06:27:12.129Z,7.69
2023-04-12T06:28:12.152Z,7.69
2023-04-12T06:29:12.173Z,7.69
2023-04-12T06:30:12.085Z,7.69
2023-04-12T06:31:12.081Z,7.72
2023-04-12T06:32:12.057Z,7.72
2023-04-12T06:33:12.054Z,7.75
2023-04-12T06:34:12.067Z,7.79
2023-04-12T06:35:12.035Z,7.80
2023-04-12T06:36:12.031Z,7.82
2023-04-12T06:37:11.999Z,7.83
2023-04-12T06:38:12.008Z,7.85
2023-04-12T06:39:14.992Z,7.83
2023-04-12T06:40:15.006Z,7.82
2023-04-12T06:41:11.978Z,7.87
2023-04-12T06:42:14.395Z,7.91
2023-04-12T06:43:11.933Z,7.94
2023-04-12T06:44:11.898Z,7.98
2023-04-12T06:45:11.927Z,7.95
2023-04-12T06:46:12.002Z,7.97
2023-04-12T06:47:12.017Z,8.01
2023-04-12T06:48:11.839Z,8.05
2023-04-12T06:49:11.839Z,8.09
2023-04-12T06:50:11.813Z,8.12
2023-04-12T06:51:11.835Z,8.12
2023-04-12T06:52:11.828Z,8.16
2023-04-12T06:53:11.776Z,8.23
2023-04-12T06:54:11.765Z,8.27
2023-04-12T06:55:11.751Z,8.27
2023-04-12T06:56:11.780Z,8.28
2023-04-12T06:57:11.717Z,8.24
2023-04-12T06:58:11.717Z,8.26
2023-04-12T06:59:14.739Z,8.24
2023-04-12T07:00:14.732Z,8.20
2023-04-12T07:01:11.696Z,8.19
2023-04-12T07:02:11.720Z,8.18
2023-04-12T07:03:11.720Z,8.13
2023-04-12T07:04:11.700Z,8.13
2023-04-12T07:05:11.663Z,8.12
2023-04-12T07:06:24.195Z,8.09
2023-04-12T07:07:12.631Z,8.08
2023-04-12T07:08:11.573Z,8.09
2023-04-12T07:09:11.563Z,8.13
2023-04-12T07:10:11.581Z,8.19
2023-04-12T07:11:20.559Z,8.16
2023-04-12T07:12:12.518Z,8.16
2023-04-12T07:13:11.543Z,8.20
2023-04-12T07:14:11.496Z,8.26
2023-04-12T07:15:11.500Z,8.28
2023-04-12T07:16:11.489Z,8.37
2023-04-12T07:17:11.463Z,8.38
2023-04-12T07:18:11.505Z,8.46
2023-04-12T07:19:14.461Z,8.48
2023-04-12T07:20:14.453Z,8.49
2023-04-12T07:21:11.407Z,8.51
2023-04-12T07:22:13.181Z,8.56
2023-04-12T07:23:11.416Z,8.55
2023-04-12T07:24:11.393Z,8.55
2023-04-12T07:25:11.354Z,8.60
2023-04-12T07:26:11.338Z,8.63
2023-04-12T07:27:11.348Z,8.63
2023-04-12T07:28:11.338Z,8.64
2023-04-12T07:29:11.296Z,8.64
2023-04-12T07:30:11.307Z,8.61
2023-04-12T07:31:11.307Z,8.60
2023-04-12T07:32:11.288Z,8.56
2023-04-12T07:33:19.161Z,8.55
2023-04-12T07:34:12.285Z,8.55
2023-04-12T07:35:11.237Z,8.58
2023-04-12T07:36:11.279Z,8.56
2023-04-12T07:37:11.196Z,8.56
2023-04-12T07:38:11.207Z,8.61
2023-04-12T07:39:14.162Z,8.64
2023-04-12T07:40:14.166Z,8.69
2023-04-12T07:41:11.140Z,8.69
2023-04-12T07:42:11.129Z,8.71
2023-04-12T07:43:11.145Z,8.73
2023-04-12T07:44:11.094Z,8.74
2023-04-12T07:45:11.093Z,8.76
2023-04-12T07:46:11.171Z,8.74
2023-04-12T07:47:11.095Z,8.76
2023-04-12T07:48:11.047Z,8.78
2023-04-12T07:49:11.077Z,8.79
2023-04-12T07:50:13.163Z,8.84
2023-04-12T07:51:11.006Z,8.88
2023-04-12T07:52:10.995Z,8.91
2023-04-12T07:53:10.977Z,8.95
2023-04-12T07:54:11.008Z,8.99
2023-04-12T07:55:10.963Z,8.99
2023-04-12T07:56:10.968Z,8.99
2023-04-12T07:57:10.932Z,9.00
2023-04-12T07:58:10.910Z,9.03
2023-04-12T07:59:13.905Z,9.06
2023-04-12T08:00:13.915Z,9.04
2023-04-12T08:01:10.870Z,9.06
2023-04-12T08:02:10.900Z,9.08
2023-04-12T08:03:10.918Z,9.08
2023-04-12T08:04:10.929Z,9.11
2023-04-12T08:05:10.838Z,9.18
2023-04-12T08:06:10.890Z,9.22
2023-04-12T08:07:10.784Z,9.23
2023-04-12T08:08:10.816Z,9.25
2023-04-12T08:09:10.767Z,9.31
2023-04-12T08:10:10.783Z,9.39
2023-04-12T08:11:10.734Z,9.37
2023-04-12T08:12:10.718Z,9.41
2023-04-12T08:13:10.760Z,9.43
2023-04-12T08:14:10.700Z,9.43
2023-04-12T08:15:10.808Z,9.46
2023-04-12T08:16:10.727Z,9.48
2023-04-12T08:17:10.657Z,9.50
2023-04-12T08:18:10.651Z,9.54
2023-04-12T08:19:13.618Z,9.61
2023-04-12T08:20:13.658Z,9.59
2023-04-12T08:21:10.589Z,9.65
2023-04-12T08:22:13.142Z,9.72
2023-04-12T08:23:10.575Z,9.77
2023-04-12T08:24:10.552Z,9.77
2023-04-12T08:25:10.557Z,9.82
2023-04-12T08:26:10.552Z,9.87
2023-04-12T08:27:10.520Z,9.89
2023-04-12T08:28:10.504Z,9.98
2023-04-12T08:29:10.495Z,10.09
2023-04-12T08:30:10.501Z,10.16
2023-04-12T08:31:10.503Z,10.25
2023-04-12T08:32:10.461Z,10.34
2023-04-12T08:33:10.435Z,10.41
2023-04-12T08:34:10.479Z,10.59
2023-04-12T08:35:10.405Z,10.67
2023-04-12T08:36:10.406Z,10.69
2023-04-12T08:37:10.388Z,10.72
2023-04-12T08:38:10.368Z,10.76
2023-04-12T08:39:13.403Z,10.75
2023-04-12T08:40:13.351Z,10.82
2023-04-12T08:41:10.329Z,10.86
2023-04-12T08:42:10.307Z,10.79
2023-04-12T08:43:10.288Z,10.69
2023-04-12T08:44:10.283Z,10.76
2023-04-12T08:45:10.304Z,10.76
2023-04-12T08:46:10.292Z,10.86
2023-04-12T08:47:10.240Z,10.89
2023-04-12T08:48:10.230Z,10.92
2023-04-12T08:49:10.217Z,10.84
2023-04-12T08:50:10.256Z,10.84
2023-04-12T08:51:10.233Z,10.78
2023-04-12T08:52:10.187Z,10.71
2023-04-12T08:53:10.161Z,10.64
2023-04-12T08:54:10.145Z,10.63
2023-04-12T08:55:10.140Z,10.59
2023-04-12T08:56:10.121Z,10.63
2023-04-12T08:57:10.141Z,10.63
2023-04-12T08:58:10.098Z,10.51
2023-04-12T08:59:13.081Z,10.44
2023-04-12T09:00:13.117Z,10.51
2023-04-12T09:01:10.052Z,10.56
2023-04-12T09:02:10.174Z,10.56
2023-04-12T09:03:10.245Z,10.53
2023-04-12T09:04:10.302Z,10.54
2023-04-12T09:05:10.065Z,10.56
2023-04-12T09:06:10.040Z,10.56
2023-04-12T09:07:09.983Z,10.42
2023-04-12T09:08:10.017Z,10.31
2023-04-12T09:09:09.958Z,10.26
2023-04-12T09:10:09.957Z,10.19
2023-04-12T09:11:09.916Z,10.17
2023-04-12T09:12:09.903Z,10.09
2023-04-12T09:13:09.920Z,10.02
2023-04-12T09:14:09.890Z,9.99
2023-04-12T09:15:09.887Z,9.95
2023-04-12T09:16:09.884Z,9.87
2023-04-12T09:17:09.952Z,9.79
2023-04-12T09:18:09.921Z,9.80
2023-04-12T09:19:12.894Z,9.80
2023-04-12T09:20:12.810Z,9.69
2023-04-12T09:21:09.789Z,9.64
2023-04-12T09:22:09.779Z,9.59
2023-04-12T09:23:09.756Z,9.55
2023-04-12T09:24:11.797Z,9.55
2023-04-12T09:25:09.766Z,9.50
2023-04-12T09:26:09.736Z,9.46
2023-04-12T09:27:09.701Z,9.43
2023-04-12T09:28:09.706Z,9.39
2023-04-12T09:29:09.708Z,9.37
2023-04-12T09:30:09.678Z,9.40
2023-04-12T09:31:09.656Z,9.36
2023-04-12T09:32:09.740Z,9.34
2023-04-12T09:33:09.729Z,9.37
2023-04-12T09:34:09.709Z,9.41
2023-04-12T09:35:09.626Z,9.46
2023-04-12T09:36:09.663Z,9.51
2023-04-12T09:37:09.606Z,9.54
2023-04-12T09:38:09.543Z,9.56
2023-04-12T09:39:12.546Z,9.55
2023-04-12T09:40:12.571Z,9.61
2023-04-12T09:41:09.539Z,9.64
2023-04-12T09:42:21.361Z,9.64
2023-04-12T09:43:10.550Z,9.59
2023-04-12T09:44:09.463Z,9.59
2023-04-12T09:45:09.474Z,9.55
2023-04-12T09:46:09.492Z,9.59
2023-04-12T09:47:09.440Z,9.61
2023-04-12T09:48:09.422Z,9.66
2023-04-12T09:49:09.486Z,9.66
2023-04-12T09:50:09.541Z,9.72
2023-04-12T09:51:09.381Z,9.65
2023-04-12T09:52:09.363Z,9.64
2023-04-12T09:53:09.337Z,9.59
2023-04-12T09:54:09.343Z,9.56
2023-04-12T09:55:09.303Z,9.58
2023-04-12T09:56:09.363Z,9.64
2023-04-12T09:57:09.314Z,9.69
2023-04-12T09:58:09.283Z,9.65
2023-04-12T09:59:12.292Z,9.62
2023-04-12T10:00:12.276Z,9.59
2023-04-12T10:01:09.255Z,9.56
2023-04-12T10:02:09.357Z,9.55
2023-04-12T10:03:09.513Z,9.51
2023-04-12T10:04:09.653Z,9.47
2023-04-12T10:05:09.331Z,9.46
2023-04-12T10:06:09.158Z,9.46
2023-04-12T10:07:09.173Z,9.36
2023-04-12T10:08:09.145Z,9.34
2023-04-12T10:09:09.118Z,9.28
2023-04-12T10:10:09.115Z,9.26
2023-04-12T10:11:09.130Z,9.22
2023-04-12T10:12:09.115Z,9.19
2023-04-12T10:13:09.073Z,9.16
2023-04-12T10:14:09.077Z,9.16
2023-04-12T10:15:09.034Z,9.18
2023-04-12T10:16:09.074Z,9.19
2023-04-12T10:17:09.035Z,9.23
2023-04-12T10:18:09.082Z,9.25
2023-04-12T10:19:11.985Z,9.25
2023-04-12T10:20:11.980Z,9.23
2023-04-12T10:21:08.989Z,9.23
2023-04-12T10:22:08.953Z,9.31
2023-04-12T10:23:08.989Z,9.36
2023-04-12T10:24:08.912Z,9.40
2023-04-12T10:25:08.918Z,9.39
2023-04-12T10:26:08.913Z,9.43
2023-04-12T10:27:08.873Z,9.44
2023-04-12T10:28:08.899Z,9.46
2023-04-12T10:29:08.877Z,9.44
2023-04-12T10:30:08.923Z,9.43
2023-04-12T10:31:08.856Z,9.40
2023-04-12T10:32:08.979Z,9.36
2023-04-12T10:33:08.850Z,9.32
2023-04-12T10:34:08.780Z,9.29
2023-04-12T10:35:08.882Z,9.36
2023-04-12T10:36:08.929Z,9.37
2023-04-12T10:37:08.752Z,9.37
2023-04-12T10:38:08.737Z,9.34
2023-04-12T10:39:11.749Z,9.31
2023-04-12T10:40:11.733Z,9.31
2023-04-12T10:41:08.791Z,9.34
2023-04-12T10:42:08.721Z,9.40
2023-04-12T10:43:08.774Z,9.46
2023-04-12T10:44:08.665Z,9.55
2023-04-12T10:45:08.643Z,9.61
2023-04-12T10:46:08.752Z,9.61
2023-04-12T10:47:08.711Z,9.61
2023-04-12T10:48:08.626Z,9.62
2023-04-12T10:49:08.599Z,9.69
2023-04-12T10:50:08.588Z,9.77
2023-04-12T10:51:08.601Z,9.77
2023-04-12T10:52:08.576Z,9.86
2023-04-12T10:53:08.530Z,9.87
2023-04-12T10:54:08.532Z,9.98
2023-04-12T10:55:08.532Z,10.01
2023-04-12T10:56:08.489Z,9.98
2023-04-12T10:57:08.485Z,9.94
2023-04-12T10:58:08.483Z,9.87
2023-04-12T10:59:11.436Z,9.77
2023-04-12T11:00:11.498Z,9.82
2023-04-12T11:01:08.679Z,9.79
2023-04-12T11:02:08.615Z,9.77
2023-04-12T11:03:08.795Z,9.73
2023-04-12T11:04:08.524Z,9.76
2023-04-12T11:05:08.392Z,9.72
2023-04-12T11:06:24.237Z,9.69
2023-04-12T11:07:09.355Z,9.73
2023-04-12T11:08:08.355Z,9.76
2023-04-12T11:09:08.317Z,9.80
2023-04-12T11:10:08.303Z,9.89
2023-04-12T11:11:08.333Z,9.95
2023-04-12T11:12:10.995Z,9.97
2023-04-12T11:13:08.247Z,9.98
2023-04-12T11:14:08.238Z,9.91
2023-04-12T11:15:08.242Z,9.84
2023-04-12T11:16:08.267Z,9.76
2023-04-12T11:17:08.282Z,9.66
2023-04-12T11:18:08.263Z,9.68
2023-04-12T11:19:11.180Z,9.72
2023-04-12T11:20:11.149Z,9.74
2023-04-12T11:21:08.154Z,9.72
2023-04-12T11:22:08.125Z,9.76
2023-04-12T11:23:11.170Z,9.72
2023-04-12T11:24:08.127Z,9.72
2023-04-12T11:25:08.095Z,9.65
2023-04-12T11:26:08.069Z,9.58
2023-04-12T11:27:08.051Z,9.54
2023-04-12T11:28:21.092Z,9.51
2023-04-12T11:29:09.015Z,9.54
2023-04-12T11:30:08.010Z,9.51
2023-04-12T11:31:08.046Z,9.51
2023-04-12T11:32:07.994Z,9.48
2023-04-12T11:33:08.055Z,9.44
2023-04-12T11:34:07.986Z,9.43
2023-04-12T11:35:07.937Z,9.39
2023-04-12T11:36:07.955Z,9.40
2023-04-12T11:37:07.915Z,9.43
2023-04-12T11:38:07.929Z,9.46
2023-04-12T11:39:10.896Z,9.47
2023-04-12T11:40:10.940Z,9.54
2023-04-12T11:41:07.860Z,9.54
2023-04-12T11:42:07.848Z,9.58
2023-04-12T11:43:07.836Z,9.61
2023-04-12T11:44:07.814Z,9.64
2023-04-12T11:45:16.682Z,9.65
2023-04-12T11:46:08.880Z,9.64
2023-04-12T11:47:07.825Z,9.64
2023-04-12T11:48:07.790Z,9.64
2023-04-12T11:49:07.771Z,9.66
2023-04-12T11:50:07.798Z,9.74
2023-04-12T11:51:11.417Z,9.83
2023-04-12T11:52:07.732Z,9.89
2023-04-12T11:53:07.725Z,9.94
2023-04-12T11:54:07.689Z,9.97
2023-04-12T11:55:07.687Z,9.94
2023-04-12T11:56:07.679Z,9.95
2023-04-12T11:57:07.645Z,9.97
2023-04-12T11:58:07.633Z,9.98
2023-04-12T11:59:10.628Z,9.95
2023-04-12T12:00:10.708Z,9.95
2023-04-12T12:01:07.637Z,9.92
2023-04-12T12:02:21.274Z,9.94
2023-04-12T12:03:09.023Z,9.91
2023-04-12T12:04:07.803Z,9.95
2023-04-12T12:05:07.833Z,9.94
2023-04-12T12:06:07.703Z,9.87
2023-04-12T12:07:08.004Z,9.89
2023-04-12T12:08:07.499Z,9.89
2023-04-12T12:09:07.501Z,9.86
2023-04-12T12:10:07.467Z,9.82
2023-04-12T12:11:08.751Z,9.73
2023-04-12T12:12:07.461Z,9.74
2023-04-12T12:13:07.481Z,9.74
2023-04-12T12:14:07.407Z,9.73
2023-04-12T12:15:07.397Z,9.80
2023-04-12T12:16:07.456Z,9.86
2023-04-12T12:17:07.388Z,9.86
2023-04-12T12:18:07.364Z,9.91
2023-04-12T12:19:10.395Z,9.91
2023-04-12T12:20:10.347Z,9.89
2023-04-12T12:21:07.321Z,9.87
2023-04-12T12:22:07.294Z,9.83
2023-04-12T12:23:07.315Z,9.80
2023-04-12T12:24:07.308Z,9.79
2023-04-12T12:25:07.263Z,9.74
2023-04-12T12:26:18.409Z,9.69
2023-04-12T12:27:08.460Z,9.66
2023-04-12T12:28:07.344Z,9.64
2023-04-12T12:29:07.203Z,9.68
2023-04-12T12:30:07.210Z,9.62
2023-04-12T12:31:07.222Z,9.58
2023-04-12T12:32:07.166Z,9.59
2023-04-12T12:33:07.242Z,9.56
2023-04-12T12:34:09.073Z,9.56
2023-04-12T12:35:07.129Z,9.58
2023-04-12T12:36:07.136Z,9.50
2023-04-12T12:37:07.095Z,9.46
2023-04-12T12:38:07.108Z,9.43
2023-04-12T12:39:10.079Z,9.43
2023-04-12T12:40:10.073Z,9.43
2023-04-12T12:41:07.052Z,9.46
2023-04-12T12:42:07.065Z,9.48
2023-04-12T12:43:07.031Z,9.50
2023-04-12T12:44:06.998Z,9.54
2023-04-12T12:45:07.024Z,9.56
2023-04-12T12:46:07.026Z,9.58
2023-04-12T12:47:13.976Z,9.59
2023-04-12T12:48:08.170Z,9.55
2023-04-12T12:49:06.966Z,9.50
2023-04-12T12:50:06.931Z,9.55
2023-04-12T12:51:06.971Z,9.55
2023-04-12T12:52:06.923Z,9.61
2023-04-12T12:53:06.871Z,9.65
2023-04-12T12:54:06.861Z,9.72
2023-04-12T12:55:06.878Z,9.76
2023-04-12T12:56:06.842Z,9.80
2023-04-12T12:57:06.861Z,9.87
2023-04-12T12:58:08.528Z,9.92
2023-04-12T12:59:09.799Z,9.94
2023-04-12T13:00:09.861Z,9.92
2023-04-12T13:01:06.781Z,9.94
2023-04-12T13:02:06.836Z,9.97
2023-04-12T13:03:06.933Z,9.99
2023-04-12T13:04:06.923Z,10.02
2023-04-12T13:05:08.097Z,10.02
2023-04-12T13:06:06.761Z,10.04
2023-04-12T13:07:06.688Z,10.05
2023-04-12T13:08:06.688Z,10.02
2023-04-12T13:09:06.668Z,9.95
2023-04-12T13:10:06.651Z,9.95
2023-04-12T13:11:06.680Z,9.94
2023-04-12T13:12:06.685Z,9.95
2023-04-12T13:13:06.602Z,9.97
2023-04-12T13:14:06.597Z,9.97
2023-04-12T13:15:18.075Z,9.98
2023-04-12T13:16:07.627Z,10.01